createdAt,value
2023-05-17T00:02:41.646Z,34.40
2023-05-17T00:05:56.050Z,34.30
2023-05-17T00:09:07.798Z,34.20
2023-05-17T00:12:20.287Z,33.90
2023-05-17T00:15:33.885Z,33.90
2023-05-17T00:18:43.363Z,34.10
2023-05-17T00:21:53.411Z,34.10
2023-05-17T00:25:02.207Z,33.80
2023-05-17T00:28:15.799Z,33.70
2023-05-17T00:31:26.907Z,33.80
2023-05-17T00:34:34.881Z,34.20
2023-05-17T00:37:46.997Z,34.20
2023-05-17T00:40:59.560Z,33.90
2023-05-17T00:44:14.245Z,33.70
2023-05-17T00:47:26.410Z,33.70
2023-05-17T00:50:37.901Z,34.30
2023-05-17T00:53:49.184Z,33.60
2023-05-17T00:57:02.330Z,33.40
2023-05-17T01:00:11.074Z,32.90
2023-05-17T01:03:24.126Z,33.30
2023-05-17T01:06:32.103Z,33.20
2023-05-17T01:09:43.857Z,33.20
2023-05-17T01:12:57.104Z,32.70
2023-05-17T01:16:13.154Z,32.40
2023-05-17T01:19:27.304Z,33.10
2023-05-17T01:22:49.642Z,33.00
2023-05-17T01:26:01.550Z,32.10
2023-05-17T01:29:15.258Z,31.90
2023-05-17T01:32:26.950Z,33.00
2023-05-17T01:35:41.982Z,33.60
2023-05-17T01:38:53.066Z,33.10
2023-05-17T01:42:04.647Z,32.60
2023-05-17T01:45:18.892Z,32.40
2023-05-17T01:48:31.831Z,33.50
2023-05-17T01:51:44.600Z,33.20
2023-05-17T01:54:58.609Z,32.70
2023-05-17T01:58:09.525Z,33.20
2023-05-17T02:01:24.801Z,32.70
2023-05-17T02:04:34.875Z,34.20
2023-05-17T02:07:51.405Z,34.20
2023-05-17T02:10:59.942Z,34.00
2023-05-17T02:14:12.998Z,34.00
2023-05-17T02:17:25.652Z,34.00
2023-05-17T02:20:36.627Z,34.40
2023-05-17T02:23:49.350Z,34.40
2023-05-17T02:42:33.022Z,33.60
2023-05-17T02:45:43.726Z,34.90
2023-05-17T02:48:55.516Z,35.40
2023-05-17T02:52:08.392Z,34.90
2023-05-17T02:58:40.990Z,34.70
2023-05-17T03:01:52.670Z,34.60
2023-05-17T03:05:05.798Z,34.40
2023-05-17T03:08:20.650Z,34.20
2023-05-17T03:11:31.578Z,34.10
2023-05-17T03:14:46.492Z,34.20
2023-05-17T03:18:01.827Z,34.10
2023-05-17T03:21:12.079Z,34.20
2023-05-17T03:24:21.561Z,33.60
2023-05-17T03:27:34.129Z,33.70
2023-05-17T03:30:45.907Z,34.00
2023-05-17T03:33:58.241Z,33.90
2023-05-17T03:37:12.976Z,33.40
2023-05-17T03:40:27.920Z,33.60
2023-05-17T03:43:38.537Z,33.70
2023-05-17T03:46:51.230Z,33.70
2023-05-17T03:50:03.523Z,33.70
2023-05-17T03:53:15.960Z,33.50
2023-05-17T03:56:30.636Z,34.10
2023-05-17T03:59:44.127Z,33.50
2023-05-17T04:02:57.773Z,33.40
2023-05-17T04:06:13.791Z,33.50
2023-05-17T04:09:23.867Z,33.30
2023-05-17T04:12:37.062Z,33.20
2023-05-17T04:15:44.750Z,33.40
2023-05-17T04:18:57.787Z,33.20
2023-05-17T04:22:08.364Z,33.20
2023-05-17T04:25:22.142Z,32.90
2023-05-17T04:28:33.079Z,33.20
2023-05-17T04:31:44.586Z,33.10
2023-05-17T04:34:57.068Z,33.10
2023-05-17T04:38:08.236Z,32.90
2023-05-17T04:41:21.581Z,32.70
2023-05-17T04:44:36.276Z,33.10
2023-05-17T04:47:46.857Z,32.90
2023-05-17T04:50:58.225Z,32.80
2023-05-17T04:54:14.645Z,32.90
2023-05-17T04:57:28.617Z,32.70
2023-05-17T05:00:39.229Z,32.60
2023-05-17T05:03:50.302Z,32.40
2023-05-17T05:07:02.840Z,32.50
2023-05-17T05:10:16.047Z,32.90
2023-05-17T05:13:28.358Z,32.80
2023-05-17T05:16:40.453Z,32.70
2023-05-17T05:19:52.971Z,32.60
2023-05-17T05:23:07.769Z,32.80
2023-05-17T05:26:20.215Z,32.70
2023-05-17T05:29:30.901Z,32.50
2023-05-17T05:32:44.814Z,32.40
2023-05-17T05:35:57.411Z,32.60
2023-05-17T05:39:09.169Z,32.90
2023-05-17T05:42:19.962Z,32.80
2023-05-17T05:45:31.225Z,32.30
2023-05-17T05:48:43.002Z,32.40
2023-05-17T05:51:56.184Z,32.20
2023-05-17T05:55:03.778Z,32.70
2023-05-17T05:58:16.539Z,33.10
2023-05-17T06:01:25.828Z,32.60
2023-05-17T06:04:44.644Z,32.30
2023-05-17T06:07:48.747Z,33.40
2023-05-17T06:11:03.119Z,32.90
2023-05-17T06:14:17.076Z,32.20
2023-05-17T06:17:28.678Z,32.40
2023-05-17T06:20:38.834Z,32.50
2023-05-17T06:23:49.584Z,33.00
2023-05-17T06:27:01.581Z,32.70
2023-05-17T06:30:18.723Z,32.50
2023-05-17T06:33:29.234Z,33.10
2023-05-17T06:36:41.830Z,32.60
2023-05-17T06:40:00.177Z,32.60
2023-05-17T06:43:07.826Z,32.50
2023-05-17T06:46:21.133Z,32.60
2023-05-17T06:49:35.875Z,32.40
2023-05-17T06:52:49.144Z,32.80
2023-05-17T06:55:59.556Z,33.00
2023-05-17T06:59:12.520Z,32.70
2023-05-17T07:02:23.542Z,32.60
2023-05-17T07:05:36.643Z,32.60
2023-05-17T07:08:48.568Z,33.20
2023-05-17T07:12:04.248Z,33.10
2023-05-17T07:15:15.089Z,32.70
2023-05-17T07:18:31.195Z,32.60
2023-05-17T07:21:43.509Z,32.80
2023-05-17T07:24:54.703Z,33.30
2023-05-17T07:28:06.247Z,32.80
2023-05-17T07:31:19.997Z,32.80
2023-05-17T07:34:30.342Z,32.60
2023-05-17T07:37:43.073Z,32.90
2023-05-17T07:40:54.978Z,33.70
2023-05-17T07:44:05.177Z,32.80
2023-05-17T07:47:18.969Z,32.80
2023-05-17T07:50:34.115Z,32.70
2023-05-17T07:53:45.291Z,33.00
2023-05-17T07:56:58.300Z,33.10
2023-05-17T08:00:09.396Z,33.00
2023-05-17T08:03:22.445Z,32.80
2023-05-17T08:06:37.029Z,32.70
2023-05-17T08:09:52.158Z,33.30
2023-05-17T08:13:05.238Z,32.70
2023-05-17T08:16:15.028Z,32.60
2023-05-17T08:19:31.014Z,32.50
2023-05-17T08:22:43.802Z,32.70
2023-05-17T08:25:56.861Z,32.90
2023-05-17T08:29:10.433Z,33.10
2023-05-17T08:32:20.934Z,32.50
2023-05-17T08:35:34.319Z,32.70
2023-05-17T08:38:49.573Z,32.80
2023-05-17T08:42:00.194Z,33.00
2023-05-17T08:45:14.354Z,32.80
2023-05-17T08:48:24.439Z,32.70
2023-05-17T08:51:34.829Z,32.80
2023-05-17T08:54:45.817Z,33.00
2023-05-17T08:57:56.856Z,32.80
2023-05-17T09:01:10.224Z,32.60
2023-05-17T09:04:20.646Z,32.90
2023-05-17T09:07:35.557Z,32.70
2023-05-17T09:10:44.847Z,32.90
2023-05-17T09:13:56.462Z,32.70
2023-05-17T09:17:06.479Z,32.80
2023-05-17T09:20:19.909Z,32.70
2023-05-17T09:23:30.237Z,32.70
2023-05-17T09:26:49.084Z,32.90
2023-05-17T09:30:02.588Z,32.60
2023-05-17T09:33:18.971Z,32.40
2023-05-17T09:36:27.599Z,32.60
2023-05-17T09:39:39.320Z,33.00
2023-05-17T09:42:51.289Z,32.70
2023-05-17T09:46:05.513Z,32.60
2023-05-17T09:49:16.483Z,32.50
2023-05-17T09:52:28.861Z,32.50
2023-05-17T09:55:40.593Z,32.90
2023-05-17T09:58:48.962Z,32.90
2023-05-17T10:02:04.654Z,32.60
2023-05-17T10:05:18.411Z,32.50
2023-05-17T10:08:28.320Z,32.70
2023-05-17T10:11:40.928Z,32.70
2023-05-17T10:14:52.987Z,32.60
2023-05-17T10:18:10.310Z,32.40
2023-05-17T10:21:22.686Z,32.40
2023-05-17T10:24:33.556Z,32.60
2023-05-17T10:27:44.280Z,32.60
2023-05-17T10:30:55.040Z,32.60
2023-05-17T10:34:07.471Z,33.10
2023-05-17T10:37:19.462Z,33.40
2023-05-17T10:40:30.193Z,33.60
2023-05-17T10:43:39.646Z,33.60
2023-05-17T10:46:55.250Z,33.30
2023-05-17T10:50:09.322Z,33.50
2023-05-17T10:53:19.778Z,33.40
2023-05-17T10:56:35.904Z,33.40
2023-05-17T10:59:59.652Z,33.50
2023-05-17T11:03:20.767Z,33.50
2023-05-17T11:06:31.106Z,33.10
2023-05-17T11:09:42.889Z,32.90
2023-05-17T11:12:54.417Z,34.00
2023-05-17T11:16:10.633Z,34.10
2023-05-17T11:19:21.421Z,33.90
2023-05-17T11:22:33.837Z,33.90
2023-05-17T11:25:45.577Z,33.80
2023-05-17T11:29:02.102Z,33.80
2023-05-17T11:32:15.109Z,34.00
2023-05-17T11:35:25.853Z,34.20
2023-05-17T11:38:36.243Z,34.90
2023-05-17T11:41:51.207Z,35.20
2023-05-17T11:45:01.152Z,35.50
2023-05-17T11:48:12.341Z,35.40
2023-05-17T11:51:25.076Z,35.90
2023-05-17T11:54:33.278Z,35.20
2023-05-17T11:57:45.130Z,34.70
2023-05-17T12:00:57.998Z,34.50
2023-05-17T12:04:09.086Z,33.50
2023-05-17T12:07:20.832Z,34.90
2023-05-17T12:10:34.244Z,35.20
2023-05-17T12:13:43.706Z,34.80
2023-05-17T12:16:58.926Z,34.80
2023-05-17T12:20:16.754Z,34.70
2023-05-17T12:23:32.093Z,34.60
2023-05-17T12:26:47.657Z,34.60
2023-05-17T12:30:00.223Z,34.20
2023-05-17T12:33:15.346Z,33.80
2023-05-17T12:36:26.414Z,33.60
2023-05-17T12:39:36.072Z,34.20
2023-05-17T12:42:46.701Z,34.30
2023-05-17T12:46:00.396Z,34.20
2023-05-17T12:49:14.565Z,34.10
2023-05-17T12:52:25.578Z,34.20
2023-05-17T12:55:41.553Z,34.00
2023-05-17T12:58:57.319Z,33.70
2023-05-17T13:02:07.422Z,33.70
2023-05-17T13:05:25.902Z,33.20
2023-05-17T13:08:37.321Z,33.80
2023-05-17T13:12:00.774Z,33.80
2023-05-17T13:15:10.966Z,32.60
2023-05-17T13:18:26.353Z,32.70
2023-05-17T13:21:35.849Z,32.20
2023-05-17T13:24:51.075Z,32.20
2023-05-17T13:28:00.604Z,31.90
2023-05-17T13:31:09.007Z,31.30
2023-05-17T13:34:20.826Z,30.70
2023-05-17T13:37:31.616Z,30.50
2023-05-17T13:40:41.673Z,31.60
2023-05-17T13:43:53.326Z,32.00
2023-05-17T13:47:08.408Z,31.30
2023-05-17T13:50:18.124Z,31.50
2023-05-17T13:53:31.283Z,30.30
2023-05-17T13:56:40.398Z,31.00
2023-05-17T13:59:55.556Z,31.90
2023-05-17T14:03:09.403Z,30.80
2023-05-17T14:06:20.939Z,30.10
2023-05-17T14:09:33.995Z,29.60
2023-05-17T14:12:45.805Z,30.60
2023-05-17T14:15:55.889Z,31.10
2023-05-17T14:19:06.511Z,31.40
2023-05-17T14:22:16.229Z,30.80
2023-05-17T14:25:27.261Z,30.60
2023-05-17T14:28:38.462Z,31.20
2023-05-17T14:31:51.823Z,31.10
2023-05-17T14:35:05.784Z,31.10
2023-05-17T14:38:16.705Z,31.30
2023-05-17T14:41:27.726Z,31.00
2023-05-17T14:44:38.299Z,31.60
2023-05-17T14:47:50.461Z,31.70
2023-05-17T14:51:02.850Z,31.60
2023-05-17T14:54:16.561Z,31.10
2023-05-17T14:57:30.983Z,31.10
2023-05-17T15:00:42.379Z,31.80
2023-05-17T15:03:53.638Z,31.80
2023-05-17T15:07:06.785Z,32.20
2023-05-17T15:10:18.211Z,30.70
2023-05-17T15:13:31.148Z,31.90
2023-05-17T15:16:44.866Z,32.50
2023-05-17T15:19:57.110Z,32.60
2023-05-17T15:23:08.226Z,32.10
2023-05-17T15:26:21.368Z,31.30
2023-05-17T15:29:32.672Z,32.90
2023-05-17T15:32:42.699Z,31.70
2023-05-17T15:35:54.456Z,32.70
2023-05-17T15:39:04.589Z,31.70
2023-05-17T15:42:15.748Z,31.90
2023-05-17T15:45:25.704Z,33.60
2023-05-17T15:48:34.681Z,33.90
2023-05-17T15:51:45.067Z,33.70
2023-05-17T15:54:55.625Z,33.30
2023-05-17T15:58:08.456Z,34.00
2023-05-17T16:01:20.383Z,34.80
2023-05-17T16:04:33.079Z,34.60
2023-05-17T16:07:45.160Z,34.60
2023-05-17T16:10:57.429Z,33.80
2023-05-17T16:14:08.868Z,34.60
2023-05-17T16:17:20.873Z,35.00
2023-05-17T16:20:31.133Z,34.70
2023-05-17T16:23:43.502Z,34.40
2023-05-17T16:26:55.050Z,33.10
2023-05-17T16:30:09.834Z,34.70
2023-05-17T16:33:22.885Z,34.90
2023-05-17T16:36:31.787Z,34.70
2023-05-17T16:39:41.171Z,33.80
2023-05-17T16:42:53.973Z,34.10
2023-05-17T16:46:06.975Z,34.30
2023-05-17T16:49:21.925Z,34.60
2023-05-17T16:52:31.837Z,34.40
2023-05-17T16:55:40.402Z,33.40
2023-05-17T16:58:52.816Z,34.20
2023-05-17T17:02:05.235Z,34.60
2023-05-17T17:05:17.694Z,34.50
2023-05-17T17:08:27.363Z,33.70
2023-05-17T17:11:40.537Z,33.70
2023-05-17T17:14:49.444Z,34.80
2023-05-17T17:17:59.551Z,34.60
2023-05-17T17:21:11.408Z,34.70
2023-05-17T17:24:24.577Z,33.50
2023-05-17T17:27:34.965Z,34.10
2023-05-17T17:30:48.145Z,34.50
2023-05-17T17:33:58.268Z,34.70
2023-05-17T17:37:10.154Z,34.50
2023-05-17T17:40:21.578Z,31.80
2023-05-17T17:43:35.148Z,32.70
2023-05-17T17:46:47.089Z,33.50
2023-05-17T17:49:59.585Z,34.30
2023-05-17T17:53:07.250Z,31.20
2023-05-17T17:56:19.298Z,30.50
2023-05-17T17:59:35.555Z,32.30
2023-05-17T18:02:46.900Z,31.90
2023-05-17T18:05:58.990Z,31.60
2023-05-17T18:09:11.235Z,31.30
2023-05-17T18:12:23.060Z,31.90
2023-05-17T18:15:36.058Z,33.30
2023-05-17T18:18:48.753Z,33.60
2023-05-17T18:21:59.403Z,33.20
2023-05-17T18:25:14.029Z,32.40
2023-05-17T18:28:40.851Z,33.40
2023-05-17T18:31:41.055Z,34.40
2023-05-17T18:34:49.848Z,33.80
2023-05-17T18:38:02.239Z,32.20
2023-05-17T18:41:14.823Z,31.80
2023-05-17T18:44:27.682Z,30.90
2023-05-17T18:47:37.117Z,31.30
2023-05-17T18:50:48.871Z,32.90
2023-05-17T18:54:00.063Z,30.50
2023-05-17T18:57:12.629Z,31.50
2023-05-17T19:00:23.972Z,32.50
2023-05-17T19:03:40.402Z,32.90
2023-05-17T19:06:49.960Z,33.20
2023-05-17T19:10:03.184Z,32.30
2023-05-17T19:13:14.324Z,32.10
2023-05-17T19:16:26.667Z,31.90
2023-05-17T19:19:37.243Z,31.40
2023-05-17T19:22:51.957Z,31.20
2023-05-17T19:26:03.704Z,31.00
2023-05-17T19:29:15.984Z,31.30
2023-05-17T19:32:25.736Z,31.50
2023-05-17T19:35:38.349Z,31.70
2023-05-17T19:38:46.929Z,31.00
2023-05-17T19:41:56.374Z,30.90
2023-05-17T19:45:09.123Z,31.10
2023-05-17T19:48:21.928Z,30.90
2023-05-17T19:51:32.114Z,30.60
2023-05-17T19:54:46.672Z,30.60
2023-05-17T19:57:59.620Z,30.90
2023-05-17T20:01:11.307Z,30.20
2023-05-17T20:04:22.660Z,30.50
2023-05-17T20:10:53.106Z,31.00
2023-05-17T20:14:05.523Z,30.80
2023-05-17T20:17:18.580Z,31.50
2023-05-17T20:20:29.919Z,31.50
2023-05-17T20:23:40.041Z,30.60
2023-05-17T20:30:07.390Z,31.00
2023-05-17T20:33:19.620Z,31.00
2023-05-17T20:36:34.792Z,30.80
2023-05-17T20:39:47.692Z,31.00
2023-05-17T20:43:02.069Z,31.20
2023-05-17T20:46:16.935Z,31.00
2023-05-17T20:49:28.216Z,30.80
2023-05-17T20:52:39.952Z,31.30
2023-05-17T20:55:55.198Z,31.00
2023-05-17T20:59:09.857Z,31.10
2023-05-17T21:02:26.951Z,31.20
2023-05-17T21:05:39.110Z,30.20
2023-05-17T21:08:54.535Z,30.80
2023-05-17T21:12:08.294Z,31.20
2023-05-17T21:15:19.285Z,31.50
2023-05-17T21:18:33.367Z,30.90
2023-05-17T21:21:46.827Z,31.20
2023-05-17T21:24:57.182Z,31.10
2023-05-17T21:28:09.249Z,31.50
2023-05-17T21:31:23.430Z,31.40
2023-05-17T21:34:34.255Z,31.40
2023-05-17T21:37:48.361Z,30.70
2023-05-17T21:41:00.123Z,31.50
2023-05-17T21:44:15.336Z,32.00
2023-05-17T21:47:27.621Z,31.00
2023-05-17T21:50:39.406Z,31.00
2023-05-17T21:53:52.323Z,30.80
2023-05-17T21:57:03.645Z,32.10
2023-05-17T22:03:29.376Z,31.70
2023-05-17T22:06:38.067Z,31.80
2023-05-17T22:09:49.092Z,32.00
2023-05-17T22:13:03.823Z,32.50
2023-05-17T22:16:16.672Z,31.70
2023-05-17T22:19:29.976Z,31.50
2023-05-17T22:22:40.623Z,31.40
2023-05-17T22:25:53.005Z,32.30
2023-05-17T22:29:04.787Z,32.50
2023-05-17T22:32:14.723Z,32.50
2023-05-17T22:35:26.635Z,31.70
2023-05-17T22:38:38.354Z,31.80
2023-05-17T22:41:53.179Z,32.40
2023-05-17T22:45:04.452Z,33.10
2023-05-17T22:48:15.377Z,32.60
2023-05-17T22:51:27.326Z,32.50
2023-05-17T22:54:38.763Z,33.00
2023-05-17T22:57:53.768Z,32.90
2023-05-17T23:01:06.442Z,33.10
2023-05-17T23:04:17.895Z,32.00
2023-05-17T23:07:30.108Z,32.40
2023-05-17T23:10:39.665Z,32.90
2023-05-17T23:13:51.432Z,33.00
2023-05-17T23:17:04.876Z,32.70
2023-05-17T23:20:15.687Z,33.10
2023-05-17T23:23:25.080Z,32.70
2023-05-17T23:26:36.569Z,32.50
2023-05-17T23:29:48.721Z,32.80
2023-05-17T23:33:00.694Z,32.50
2023-05-17T23:36:14.140Z,32.50
2023-05-17T23:39:27.572Z,32.20
2023-05-17T23:42:38.574Z,32.30
2023-05-17T23:45:49.928Z,32.70
2023-05-17T23:49:04.180Z,31.20
2023-05-17T23:52:20.583Z,31.60
2023-05-17T23:55:34.323Z,32.40
2023-05-17T23:58:49.714Z,32.80
